Time;durP1;ratioP1;P1;durP2;ratioP2;P2;SDS_P1;SDS_P2;PMS_P1;PMS_P2;Temp;Humidity;BMP_temperature;BMP_pressure;BME280_temperature;BME280_humidity;BME280_pressure;Samples;Min_cycle;Max_cycle;Signal;HPM_P1;HPM_P2
2021/04/30 00:00:21;;;;;;;36.80;33.43;;;;;;;;;;4964408;28;20452;-63
2021/04/30 00:02:48;;;;;;;36.97;33.67;;;;;;;;;;4964759;28;20492;-63
2021/04/30 00:05:14;;;;;;;36.23;33.03;;;;;;;;;;4965518;28;20463;-63
2021/04/30 00:07:41;;;;;;;35.90;32.70;;;;;;;;;;4965525;28;20452;-65
2021/04/30 00:10:08;;;;;;;39.60;35.67;;;;;;;;;;4965658;28;20453;-64
2021/04/30 00:12:35;;;;;;;37.87;34.50;;;;;;;;;;4963447;28;20491;-64
2021/04/30 00:15:03;;;;;;;36.90;33.30;;;;;;;;;;4955383;28;21016;-64
2021/04/30 00:17:30;;;;;;;36.07;32.97;;;;;;;;;;4955032;28;20461;-64
2021/04/30 00:19:56;;;;;;;37.57;34.23;;;;;;;;;;4954559;28;20950;-63
2021/04/30 00:22:23;;;;;;;37.40;34.10;;;;;;;;;;4954564;28;21010;-63
2021/04/30 00:24:50;;;;;;;37.30;34.10;;;;;;;;;;4954844;28;20452;-63
2021/04/30 00:27:16;;;;;;;37.83;34.40;;;;;;;;;;4954310;28;20463;-63
2021/04/30 00:29:43;;;;;;;39.40;35.90;;;;;;;;;;4954908;28;20462;-63
2021/04/30 00:32:12;;;;;;;39.17;35.40;;;;;;;;;;4954429;28;20468;-63
2021/04/30 00:34:40;;;;;;;39.27;35.73;;;;;;;;;;4954940;28;20452;-64
2021/04/30 00:37:07;;;;;;;40.20;36.63;;;;;;;;;;4954268;28;20926;-64
2021/04/30 00:39:34;;;;;;;39.50;35.87;;;;;;;;;;4954528;28;20462;-63
2021/04/30 00:42:00;;;;;;;41.30;37.57;;;;;;;;;;4954076;28;20479;-64
2021/04/30 00:44:27;;;;;;;40.30;36.60;;;;;;;;;;4954579;28;20506;-64
2021/04/30 00:46:54;;;;;;;41.40;37.67;;;;;;;;;;4954357;28;20452;-63
2021/04/30 00:49:21;;;;;;;41.80;37.83;;;;;;;;;;4954588;28;20448;-63
2021/04/30 00:51:48;;;;;;;41.67;37.97;;;;;;;;;;4954062;28;20507;-63
2021/04/30 00:54:15;;;;;;;39.60;35.77;;;;;;;;;;4954293;28;20460;-64
2021/04/30 00:56:42;;;;;;;40.37;36.57;;;;;;;;;;4954286;28;20459;-64
2021/04/30 00:59:08;;;;;;;42.33;38.33;;;;;;;;;;4954571;28;20459;-63
2021/04/30 01:01:35;;;;;;;41.30;37.50;;;;;;;;;;4978296;23;20484;-65
2021/04/30 01:04:01;;;;;;;43.03;39.10;;;;;;;;;;4951164;28;20480;-65
2021/04/30 01:06:31;;;;;;;42.07;38.37;;;;;;;;;;4964698;28;20448;-65
2021/04/30 01:08:58;;;;;;;41.83;37.90;;;;;;;;;;4972999;28;20606;-65
2021/04/30 01:11:24;;;;;;;41.00;37.40;;;;;;;;;;4973142;28;20944;-65
2021/04/30 01:13:51;;;;;;;40.60;37.10;;;;;;;;;;4954145;28;20835;-65
2021/04/30 01:16:17;;;;;;;44.73;40.63;;;;;;;;;;4953943;28;20460;-65
2021/04/30 01:18:45;;;;;;;41.60;37.83;;;;;;;;;;4954056;28;20532;-65
2021/04/30 01:21:12;;;;;;;42.97;39.07;;;;;;;;;;4953566;28;20455;-65
2021/04/30 01:23:45;;;;;;;44.97;40.50;;;;;;;;;;4953488;28;20488;-65
2021/04/30 01:26:12;;;;;;;45.20;41.03;;;;;;;;;;4953861;28;20436;-65
2021/04/30 01:28:39;;;;;;;43.60;39.60;;;;;;;;;;4953675;28;20861;-65
2021/04/30 01:31:05;;;;;;;39.53;36.03;;;;;;;;;;4953840;28;20448;-65
2021/04/30 01:33:32;;;;;;;43.70;39.70;;;;;;;;;;4954043;28;20464;-65
2021/04/30 01:35:58;;;;;;;41.20;37.60;;;;;;;;;;4953073;28;20977;-65
2021/04/30 01:38:25;;;;;;;42.53;38.73;;;;;;;;;;4953848;28;20508;-65
2021/04/30 01:40:53;;;;;;;45.87;41.53;;;;;;;;;;4953610;28;20456;-65
2021/04/30 01:43:20;;;;;;;44.47;40.47;;;;;;;;;;4953729;28;20563;-66
2021/04/30 01:45:52;;;;;;;44.30;39.83;;;;;;;;;;4953736;28;20932;-65
2021/04/30 01:48:19;;;;;;;44.37;40.47;;;;;;;;;;4953736;28;20823;-65
2021/04/30 01:50:45;;;;;;;43.97;39.97;;;;;;;;;;4953255;28;20460;-65
2021/04/30 01:53:13;;;;;;;44.03;40.07;;;;;;;;;;4953796;28;20831;-65
2021/04/30 01:55:40;;;;;;;44.77;40.73;;;;;;;;;;4953338;28;20448;-65
2021/04/30 01:58:07;;;;;;;46.00;41.90;;;;;;;;;;4953422;28;20955;-65
2021/04/30 02:00:34;;;;;;;44.03;39.83;;;;;;;;;;4954014;28;20448;-65
2021/04/30 02:03:01;;;;;;;43.57;39.73;;;;;;;;;;4953561;28;20499;-65
2021/04/30 02:05:28;;;;;;;42.67;38.90;;;;;;;;;;4953516;28;20452;-65
2021/04/30 02:07:55;;;;;;;44.80;40.70;;;;;;;;;;4953544;28;20544;-65
2021/04/30 02:10:23;;;;;;;43.87;40.00;;;;;;;;;;4953599;28;20452;-65
2021/04/30 02:12:50;;;;;;;44.83;40.73;;;;;;;;;;4953386;28;20851;-65
2021/04/30 02:15:19;;;;;;;42.60;38.63;;;;;;;;;;4957305;28;20498;-65
2021/04/30 02:17:45;;;;;;;39.57;36.10;;;;;;;;;;4957046;28;20459;-65
2021/04/30 02:20:13;;;;;;;41.00;37.23;;;;;;;;;;4957467;28;20820;-65
2021/04/30 02:22:40;;;;;;;42.90;38.90;;;;;;;;;;4957190;28;20495;-65
2021/04/30 02:25:08;;;;;;;41.13;37.43;;;;;;;;;;4957045;28;20547;-65
2021/04/30 02:27:35;;;;;;;42.33;38.40;;;;;;;;;;4956780;28;20880;-65
2021/04/30 02:30:01;;;;;;;42.93;38.97;;;;;;;;;;4957056;28;20499;-65
2021/04/30 02:32:30;;;;;;;47.37;42.87;;;;;;;;;;4956833;28;20468;-65
2021/04/30 02:34:57;;;;;;;45.30;40.90;;;;;;;;;;4957433;28;20487;-65
2021/04/30 02:37:24;;;;;;;45.60;41.30;;;;;;;;;;4956651;28;20471;-65
2021/04/30 02:39:51;;;;;;;44.30;40.17;;;;;;;;;;4956769;28;20459;-65
2021/04/30 02:42:18;;;;;;;41.33;37.53;;;;;;;;;;4956432;28;20468;-65
2021/04/30 02:44:45;;;;;;;41.13;37.30;;;;;;;;;;4956972;28;20947;-65
2021/04/30 02:47:11;;;;;;;40.80;37.17;;;;;;;;;;4956509;28;20456;-65
2021/04/30 02:49:40;;;;;;;42.53;38.63;;;;;;;;;;4956799;28;20543;-65
2021/04/30 02:52:06;;;;;;;43.23;39.10;;;;;;;;;;4956486;28;20543;-65
2021/04/30 02:54:33;;;;;;;44.03;40.00;;;;;;;;;;4956798;28;20448;-65
2021/04/30 02:57:00;;;;;;;44.70;40.57;;;;;;;;;;4956523;28;20452;-65
2021/04/30 02:59:28;;;;;;;43.30;39.37;;;;;;;;;;4956458;28;20966;-65
2021/04/30 03:01:54;;;;;;;42.03;38.33;;;;;;;;;;4956186;28;21007;-65
2021/04/30 03:04:21;;;;;;;39.43;35.90;;;;;;;;;;4956941;28;20531;-65
2021/04/30 03:06:49;;;;;;;41.87;38.07;;;;;;;;;;4955972;28;20475;-65
2021/04/30 03:09:15;;;;;;;42.40;38.40;;;;;;;;;;4956443;28;20448;-65
2021/04/30 03:11:42;;;;;;;39.43;35.83;;;;;;;;;;4956345;28;20452;-66
2021/04/30 03:14:09;;;;;;;40.23;36.63;;;;;;;;;;4956255;28;20495;-65
2021/04/30 03:16:35;;;;;;;39.30;35.70;;;;;;;;;;4956264;28;20463;-65
2021/04/30 03:19:02;;;;;;;39.37;35.67;;;;;;;;;;4956299;28;20448;-66
2021/04/30 03:21:29;;;;;;;39.87;36.13;;;;;;;;;;4956145;28;20506;-66
2021/04/30 03:23:56;;;;;;;41.50;37.20;;;;;;;;;;4956058;28;20495;-65
2021/04/30 03:26:23;;;;;;;37.50;34.10;;;;;;;;;;4954900;28;20456;-65
2021/04/30 03:28:49;;;;;;;39.63;36.03;;;;;;;;;;4955842;28;20460;-65
2021/04/30 03:31:16;;;;;;;37.63;34.40;;;;;;;;;;4955822;28;20460;-65
2021/04/30 03:33:43;;;;;;;37.57;34.20;;;;;;;;;;4956047;28;20464;-65
2021/04/30 03:36:09;;;;;;;36.73;33.50;;;;;;;;;;4955640;28;21144;-65
2021/04/30 03:38:36;;;;;;;34.90;32.07;;;;;;;;;;4955866;28;20994;-65
2021/04/30 03:41:03;;;;;;;34.93;31.60;;;;;;;;;;4955442;28;20452;-65
2021/04/30 03:43:30;;;;;;;33.23;30.23;;;;;;;;;;4955331;28;20834;-65
2021/04/30 03:45:58;;;;;;;31.90;29.20;;;;;;;;;;4955740;28;20447;-65
2021/04/30 03:48:27;;;;;;;32.50;29.60;;;;;;;;;;4956002;28;20460;-65
2021/04/30 03:50:54;;;;;;;32.57;29.77;;;;;;;;;;4955447;28;20452;-65
2021/04/30 03:53:21;;;;;;;32.80;30.00;;;;;;;;;;4955469;28;20494;-65
2021/04/30 03:55:47;;;;;;;31.93;29.13;;;;;;;;;;4955128;28;20467;-65
2021/04/30 03:58:15;;;;;;;32.27;29.47;;;;;;;;;;4955552;28;20452;-65
2021/04/30 04:00:42;;;;;;;30.53;27.93;;;;;;;;;;4955204;28;20820;-64
2021/04/30 04:03:08;;;;;;;31.73;29.07;;;;;;;;;;4955118;28;20499;-65
2021/04/30 04:05:35;;;;;;;33.47;30.57;;;;;;;;;;4955005;28;20459;-65
2021/04/30 04:08:01;;;;;;;37.33;34.03;;;;;;;;;;4955080;28;20463;-65
2021/04/30 04:10:28;;;;;;;34.97;32.07;;;;;;;;;;4955269;28;20452;-65
2021/04/30 04:12:55;;;;;;;34.43;31.83;;;;;;;;;;4955242;28;20469;-65
2021/04/30 04:15:22;;;;;;;33.63;30.83;;;;;;;;;;4955087;28;20456;-65
2021/04/30 04:17:49;;;;;;;34.53;31.63;;;;;;;;;;4955182;28;20462;-65
2021/04/30 04:20:15;;;;;;;34.73;32.03;;;;;;;;;;4954926;28;20461;-65
2021/04/30 04:22:42;;;;;;;34.67;31.90;;;;;;;;;;4954667;28;20828;-65
2021/04/30 04:25:09;;;;;;;36.50;33.60;;;;;;;;;;4955027;28;20448;-65
2021/04/30 04:27:36;;;;;;;36.70;33.80;;;;;;;;;;4954458;28;20967;-65
2021/04/30 04:30:02;;;;;;;36.73;33.63;;;;;;;;;;4954972;28;20739;-65
2021/04/30 04:32:30;;;;;;;40.80;37.40;;;;;;;;;;4954649;28;20486;-65
2021/04/30 04:34:56;;;;;;;39.57;36.33;;;;;;;;;;4954762;28;20444;-65
2021/04/30 04:37:23;;;;;;;38.90;35.83;;;;;;;;;;4954150;28;20464;-65
2021/04/30 04:39:50;;;;;;;41.73;38.40;;;;;;;;;;4954714;28;20788;-65
2021/04/30 04:42:16;;;;;;;42.67;39.37;;;;;;;;;;4955025;28;20475;-65
2021/04/30 04:44:43;;;;;;;44.37;40.67;;;;;;;;;;4955375;28;20868;-65
2021/04/30 04:47:09;;;;;;;44.77;41.00;;;;;;;;;;4955646;28;20473;-65
2021/04/30 04:49:37;;;;;;;45.40;41.63;;;;;;;;;;4956679;28;20455;-65
2021/04/30 04:52:04;;;;;;;44.40;40.83;;;;;;;;;;4954981;28;20472;-65
2021/04/30 04:54:31;;;;;;;45.50;41.80;;;;;;;;;;4954420;28;20455;-65
2021/04/30 04:56:58;;;;;;;44.33;40.83;;;;;;;;;;4954649;28;20464;-65
2021/04/30 04:59:25;;;;;;;43.80;40.37;;;;;;;;;;4954469;28;20444;-65
2021/04/30 05:01:51;;;;;;;44.60;41.00;;;;;;;;;;4953891;28;20507;-65
2021/04/30 05:04:18;;;;;;;44.00;40.43;;;;;;;;;;4953835;28;20579;-65
2021/04/30 05:06:45;;;;;;;42.03;38.73;;;;;;;;;;4954092;28;20456;-65
2021/04/30 05:09:12;;;;;;;43.37;39.73;;;;;;;;;;4954030;28;20943;-65
2021/04/30 05:11:38;;;;;;;44.50;40.80;;;;;;;;;;4954168;28;20462;-65
2021/04/30 05:14:05;;;;;;;42.23;38.87;;;;;;;;;;4954048;28;20467;-65
2021/04/30 05:16:32;;;;;;;42.93;39.43;;;;;;;;;;4953898;28;20455;-65
2021/04/30 05:18:58;;;;;;;45.60;41.70;;;;;;;;;;4953731;28;20457;-65
2021/04/30 05:21:25;;;;;;;47.73;43.93;;;;;;;;;;4953705;28;20547;-65
2021/04/30 05:23:56;;;;;;;46.83;42.90;;;;;;;;;;4954223;28;21245;-65
2021/04/30 05:26:23;;;;;;;48.07;44.13;;;;;;;;;;4954010;28;20456;-64
2021/04/30 05:28:50;;;;;;;48.53;44.50;;;;;;;;;;4953968;28;20457;-65
2021/04/30 05:31:16;;;;;;;49.57;45.47;;;;;;;;;;4953924;28;20479;-65
2021/04/30 05:33:43;;;;;;;48.00;44.07;;;;;;;;;;4953590;28;20838;-64
2021/04/30 05:36:09;;;;;;;46.67;42.87;;;;;;;;;;4953955;28;20457;-65
2021/04/30 05:38:36;;;;;;;49.00;45.10;;;;;;;;;;4953888;28;20479;-64
2021/04/30 05:41:03;;;;;;;46.00;42.27;;;;;;;;;;4953825;28;20448;-64
2021/04/30 05:43:30;;;;;;;47.20;43.33;;;;;;;;;;4953497;28;20484;-64
2021/04/30 05:45:57;;;;;;;47.17;43.37;;;;;;;;;;4953590;28;20458;-64
2021/04/30 05:48:23;;;;;;;47.27;43.37;;;;;;;;;;4953195;28;20456;-65
2021/04/30 05:50:50;;;;;;;49.00;45.10;;;;;;;;;;4953802;28;20475;-64
2021/04/30 05:53:17;;;;;;;46.53;42.83;;;;;;;;;;4953826;28;20464;-64
2021/04/30 05:55:43;;;;;;;45.00;41.30;;;;;;;;;;4953411;28;20460;-65
2021/04/30 05:58:11;;;;;;;45.20;41.47;;;;;;;;;;4953628;28;20464;-64
2021/04/30 06:00:38;;;;;;;44.73;41.20;;;;;;;;;;4953654;28;20467;-65
2021/04/30 06:03:05;;;;;;;49.47;45.57;;;;;;;;;;4953183;28;21054;-65
2021/04/30 06:05:31;;;;;;;44.43;41.03;;;;;;;;;;4953592;28;20459;-65
2021/04/30 06:07:58;;;;;;;45.97;42.27;;;;;;;;;;4953346;28;20966;-64
2021/04/30 06:10:25;;;;;;;43.73;40.03;;;;;;;;;;4953771;28;20456;-64
2021/04/30 06:12:51;;;;;;;44.07;40.47;;;;;;;;;;4953385;28;20471;-64
2021/04/30 06:15:19;;;;;;;42.27;38.97;;;;;;;;;;4953136;28;20970;-64
2021/04/30 06:17:45;;;;;;;43.50;39.90;;;;;;;;;;4953441;28;20480;-64
2021/04/30 06:20:12;;;;;;;41.13;37.97;;;;;;;;;;4953206;28;20452;-65
2021/04/30 06:22:39;;;;;;;41.23;37.80;;;;;;;;;;4953485;28;20474;-65
2021/04/30 06:25:06;;;;;;;40.17;37.17;;;;;;;;;;4953718;28;20452;-64
2021/04/30 06:27:33;;;;;;;40.03;36.83;;;;;;;;;;4953302;28;20448;-64
2021/04/30 06:29:59;;;;;;;36.60;33.70;;;;;;;;;;4953132;28;20707;-64
2021/04/30 06:32:27;;;;;;;34.37;31.70;;;;;;;;;;4953548;28;20482;-64
2021/04/30 06:34:53;;;;;;;35.43;32.77;;;;;;;;;;4953177;28;20832;-64
2021/04/30 06:37:20;;;;;;;34.50;31.33;;;;;;;;;;4953011;28;20460;-64
2021/04/30 06:39:46;;;;;;;35.20;32.10;;;;;;;;;;4953367;28;20463;-65
2021/04/30 06:42:13;;;;;;;37.40;34.30;;;;;;;;;;4953021;28;20494;-64
2021/04/30 06:44:40;;;;;;;37.40;34.20;;;;;;;;;;4953562;28;20495;-64
2021/04/30 06:47:06;;;;;;;33.50;30.90;;;;;;;;;;4952910;28;21033;-64
2021/04/30 06:49:34;;;;;;;32.30;29.70;;;;;;;;;;4953355;28;20507;-64
2021/04/30 06:52:00;;;;;;;33.87;31.27;;;;;;;;;;4953287;28;20468;-64
2021/04/30 06:54:28;;;;;;;33.97;31.27;;;;;;;;;;4952965;28;20448;-64
2021/04/30 06:56:54;;;;;;;31.93;29.53;;;;;;;;;;4952969;28;20452;-64
2021/04/30 06:59:21;;;;;;;31.70;29.33;;;;;;;;;;4953153;28;20444;-64
2021/04/30 07:01:48;;;;;;;29.43;27.30;;;;;;;;;;4955957;28;20511;-64
2021/04/30 07:04:14;;;;;;;29.10;26.90;;;;;;;;;;4956979;28;20987;-63
2021/04/30 07:06:42;;;;;;;28.90;26.90;;;;;;;;;;4956136;28;20467;-63
2021/04/30 07:09:08;;;;;;;30.47;28.27;;;;;;;;;;4956391;28;20452;-63
2021/04/30 07:11:35;;;;;;;29.87;27.47;;;;;;;;;;4956233;28;20452;-63
2021/04/30 07:14:03;;;;;;;28.43;26.33;;;;;;;;;;4956697;28;20523;-63
2021/04/30 07:16:29;;;;;;;29.40;27.20;;;;;;;;;;4956157;28;20906;-63
2021/04/30 07:18:56;;;;;;;29.00;26.87;;;;;;;;;;4956181;28;20974;-63
2021/04/30 07:21:23;;;;;;;28.20;26.10;;;;;;;;;;4956310;28;20448;-63
2021/04/30 07:23:50;;;;;;;26.80;24.90;;;;;;;;;;4955936;28;20851;-63
2021/04/30 07:26:17;;;;;;;28.93;26.73;;;;;;;;;;4955629;28;20964;-64
2021/04/30 07:28:44;;;;;;;28.87;26.67;;;;;;;;;;4956232;28;20447;-63
2021/04/30 07:31:10;;;;;;;30.27;27.93;;;;;;;;;;4955990;28;20483;-63
2021/04/30 07:33:40;;;;;;;29.63;27.53;;;;;;;;;;4956036;28;20542;-63
2021/04/30 07:36:07;;;;;;;30.60;27.70;;;;;;;;;;4955502;28;20975;-63
2021/04/30 07:38:34;;;;;;;29.80;27.70;;;;;;;;;;4955659;28;20457;-63
2021/04/30 07:41:01;;;;;;;33.13;30.63;;;;;;;;;;4955595;28;20456;-63
2021/04/30 07:43:28;;;;;;;30.93;28.63;;;;;;;;;;4955749;28;20496;-63
2021/04/30 07:45:55;;;;;;;27.90;25.07;;;;;;;;;;4956648;28;20834;-63
2021/04/30 07:48:21;;;;;;;25.30;23.43;;;;;;;;;;4955696;28;20479;-63
2021/04/30 07:50:48;;;;;;;25.77;23.80;;;;;;;;;;4955616;28;20448;-63
2021/04/30 07:53:14;;;;;;;24.27;22.50;;;;;;;;;;4955445;28;20487;-63
2021/04/30 07:55:41;;;;;;;21.00;19.40;;;;;;;;;;4955382;28;20445;-63
2021/04/30 07:58:08;;;;;;;20.97;19.37;;;;;;;;;;4955368;28;20487;-63
2021/04/30 08:00:35;;;;;;;21.30;19.90;;;;;;;;;;4955472;28;20452;-63
2021/04/30 08:03:02;;;;;;;20.73;19.33;;;;;;;;;;4955036;28;21118;-63
2021/04/30 08:05:29;;;;;;;20.87;19.13;;;;;;;;;;4955420;28;20830;-63
2021/04/30 08:07:58;;;;;;;17.97;16.67;;;;;;;;;;4955126;28;20459;-63
2021/04/30 08:10:25;;;;;;;19.77;18.37;;;;;;;;;;4955376;28;20457;-63
2021/04/30 08:12:51;;;;;;;19.00;17.70;;;;;;;;;;4954711;28;20984;-63
2021/04/30 08:15:19;;;;;;;18.87;17.57;;;;;;;;;;4955298;28;20458;-63
2021/04/30 08:17:46;;;;;;;20.50;18.80;;;;;;;;;;4954895;28;20452;-63
2021/04/30 08:20:13;;;;;;;19.90;18.20;;;;;;;;;;4955285;28;20452;-63
2021/04/30 08:22:39;;;;;;;19.93;18.53;;;;;;;;;;4954944;28;20468;-63
2021/04/30 08:25:07;;;;;;;19.57;18.03;;;;;;;;;;4955222;28;20494;-63
2021/04/30 08:27:34;;;;;;;20.03;18.43;;;;;;;;;;4955294;28;20460;-63
2021/04/30 08:30:00;;;;;;;19.60;18.20;;;;;;;;;;4955208;28;20460;-63
2021/04/30 08:32:28;;;;;;;17.30;16.10;;;;;;;;;;4954862;28;20475;-63
2021/04/30 08:34:54;;;;;;;17.40;16.20;;;;;;;;;;4954899;28;20464;-63
2021/04/30 08:37:21;;;;;;;17.80;16.50;;;;;;;;;;4954966;28;20452;-63
2021/04/30 08:39:48;;;;;;;20.13;18.73;;;;;;;;;;4954807;28;20448;-64
2021/04/30 08:42:16;;;;;;;20.17;18.53;;;;;;;;;;4955309;28;20478;-63
2021/04/30 08:44:43;;;;;;;18.37;16.97;;;;;;;;;;4954431;28;20870;-63
2021/04/30 08:47:09;;;;;;;17.20;16.00;;;;;;;;;;4954268;28;20453;-63
2021/04/30 08:49:37;;;;;;;19.00;17.60;;;;;;;;;;4954428;28;20819;-63
2021/04/30 08:52:04;;;;;;;18.30;17.00;;;;;;;;;;4954647;28;20546;-63
2021/04/30 08:54:30;;;;;;;19.00;17.60;;;;;;;;;;4954645;28;20448;-63
2021/04/30 08:57:00;;;;;;;17.57;16.40;;;;;;;;;;4954484;28;20452;-63
2021/04/30 08:59:27;;;;;;;18.03;16.73;;;;;;;;;;4954625;28;20452;-63
2021/04/30 09:01:54;;;;;;;17.63;16.43;;;;;;;;;;4954405;28;20484;-63
2021/04/30 09:04:20;;;;;;;17.53;16.10;;;;;;;;;;4954659;28;20476;-63
2021/04/30 09:06:48;;;;;;;16.27;15.17;;;;;;;;;;4954140;28;20511;-63
2021/04/30 09:09:16;;;;;;;14.80;13.87;;;;;;;;;;4954523;28;20448;-63
2021/04/30 09:11:43;;;;;;;14.40;13.40;;;;;;;;;;4954544;28;20460;-63
2021/04/30 09:14:20;;;;;;;14.63;13.63;;;;;;;;;;4953923;28;20456;-63
2021/04/30 09:17:09;;;;;;;15.40;14.40;;;;;;;;;;4954061;28;20452;-63
2021/04/30 09:19:37;;;;;;;15.03;13.83;;;;;;;;;;4954334;28;20443;-63
2021/04/30 09:22:05;;;;;;;14.40;13.43;;;;;;;;;;4953791;28;20480;-64
2021/04/30 09:24:32;;;;;;;14.00;12.90;;;;;;;;;;4953448;28;20559;-63
2021/04/30 09:26:58;;;;;;;14.77;13.77;;;;;;;;;;4953350;28;20470;-63
2021/04/30 09:29:27;;;;;;;15.40;14.07;;;;;;;;;;4953736;28;20959;-63
2021/04/30 09:31:55;;;;;;;15.10;14.00;;;;;;;;;;4953873;28;20472;-63
2021/04/30 09:34:27;;;;;;;16.30;15.20;;;;;;;;;;4954005;28;20453;-63
2021/04/30 09:37:01;;;;;;;15.87;14.80;;;;;;;;;;4953876;28;20437;-63
2021/04/30 09:39:28;;;;;;;14.37;13.37;;;;;;;;;;4953517;28;20452;-63
2021/04/30 09:42:05;;;;;;;14.77;13.67;;;;;;;;;;4953951;28;20479;-63
2021/04/30 09:44:35;;;;;;;15.23;14.23;;;;;;;;;;4953590;28;20487;-63
2021/04/30 09:47:15;;;;;;;15.37;14.37;;;;;;;;;;4953726;28;20453;-63
2021/04/30 09:49:41;;;;;;;15.57;14.47;;;;;;;;;;4953786;28;20507;-63
2021/04/30 09:52:08;;;;;;;15.50;14.37;;;;;;;;;;4953555;28;20535;-63
2021/04/30 09:54:38;;;;;;;15.70;14.60;;;;;;;;;;4953585;28;20865;-63
2021/04/30 09:57:07;;;;;;;15.63;14.53;;;;;;;;;;4953560;28;20455;-63
2021/04/30 09:59:34;;;;;;;15.00;14.00;;;;;;;;;;4953899;28;20542;-63
2021/04/30 10:02:08;;;;;;;14.67;13.67;;;;;;;;;;4953325;28;20476;-63
2021/04/30 10:04:35;;;;;;;13.90;12.90;;;;;;;;;;4953227;28;20487;-62
2021/04/30 10:07:03;;;;;;;13.40;12.50;;;;;;;;;;4953366;28;20460;-63
2021/04/30 10:09:30;;;;;;;12.63;11.73;;;;;;;;;;4953559;28;20451;-63
2021/04/30 10:11:58;;;;;;;11.63;10.83;;;;;;;;;;4953299;28;20597;-63
2021/04/30 10:14:24;;;;;;;11.37;10.63;;;;;;;;;;4953255;28;20451;-63
2021/04/30 10:16:52;;;;;;;10.90;10.10;;;;;;;;;;4952893;28;20460;-63
2021/04/30 10:19:18;;;;;;;11.40;10.67;;;;;;;;;;4953609;28;20471;-63
2021/04/30 10:21:46;;;;;;;11.70;10.90;;;;;;;;;;4953370;28;20491;-63
2021/04/30 10:24:16;;;;;;;9.90;9.10;;;;;;;;;;4953229;28;20480;-63
2021/04/30 10:26:43;;;;;;;10.20;9.50;;;;;;;;;;4953146;28;20452;-63
2021/04/30 10:29:15;;;;;;;10.07;9.37;;;;;;;;;;4953763;28;20448;-63
2021/04/30 10:31:44;;;;;;;9.87;9.17;;;;;;;;;;4953076;28;20456;-63
2021/04/30 10:34:15;;;;;;;11.03;10.23;;;;;;;;;;4954520;28;20981;-63
2021/04/30 10:36:44;;;;;;;9.93;9.27;;;;;;;;;;4957497;28;20462;-63
2021/04/30 10:39:22;;;;;;;10.63;9.93;;;;;;;;;;4958615;28;20452;-63
2021/04/30 10:41:50;;;;;;;11.47;10.70;;;;;;;;;;4958255;28;20472;-63
2021/04/30 10:44:21;;;;;;;10.67;9.97;;;;;;;;;;4956889;28;20494;-63
2021/04/30 10:46:48;;;;;;;11.00;10.27;;;;;;;;;;4956673;28;20516;-63
2021/04/30 10:49:17;;;;;;;11.10;10.40;;;;;;;;;;4956682;28;20460;-63
2021/04/30 10:51:44;;;;;;;11.80;10.80;;;;;;;;;;4956511;28;20514;-63
2021/04/30 10:54:24;;;;;;;11.30;10.60;;;;;;;;;;4956819;28;20456;-63
2021/04/30 10:56:57;;;;;;;12.70;11.90;;;;;;;;;;4956343;28;20986;-62
2021/04/30 10:59:27;;;;;;;13.27;12.30;;;;;;;;;;4956417;28;20879;-62
2021/04/30 11:02:01;;;;;;;12.47;11.67;;;;;;;;;;4956496;28;20523;-63
2021/04/30 11:04:28;;;;;;;12.53;11.70;;;;;;;;;;4956662;28;20494;-62
2021/04/30 11:06:55;;;;;;;12.73;11.83;;;;;;;;;;4956118;28;20452;-62
2021/04/30 11:09:30;;;;;;;11.23;10.43;;;;;;;;;;4956060;28;20499;-62
2021/04/30 11:11:59;;;;;;;11.90;11.00;;;;;;;;;;4956318;28;20456;-62
2021/04/30 11:14:36;;;;;;;12.43;11.53;;;;;;;;;;4956464;28;20770;-63
2021/04/30 11:17:02;;;;;;;12.57;11.67;;;;;;;;;;4956236;28;20440;-62
2021/04/30 11:19:30;;;;;;;13.33;12.43;;;;;;;;;;4956384;28;20542;-62
2021/04/30 11:21:58;;;;;;;14.07;13.07;;;;;;;;;;4956125;28;20526;-62
2021/04/30 11:24:32;;;;;;;13.43;12.40;;;;;;;;;;4955988;28;20484;-63
2021/04/30 11:27:08;;;;;;;13.60;12.70;;;;;;;;;;4955964;28;20466;-63
2021/04/30 11:29:36;;;;;;;13.33;12.33;;;;;;;;;;4956277;28;20447;-63
2021/04/30 11:32:17;;;;;;;13.10;12.10;;;;;;;;;;4956146;28;20511;-62
2021/04/30 11:34:50;;;;;;;14.13;13.03;;;;;;;;;;4956224;28;20875;-62
2021/04/30 11:37:18;;;;;;;13.00;12.10;;;;;;;;;;4956431;28;20452;-62
2021/04/30 11:39:44;;;;;;;13.37;12.47;;;;;;;;;;4957330;28;20474;-63
2021/04/30 11:42:13;;;;;;;12.07;11.33;;;;;;;;;;4958932;28;20468;-63
2021/04/30 11:44:40;;;;;;;11.90;11.10;;;;;;;;;;4963454;28;20495;-64
2021/04/30 11:47:08;;;;;;;12.53;11.73;;;;;;;;;;4954814;28;20452;-62
2021/04/30 11:49:35;;;;;;;11.93;11.03;;;;;;;;;;4956064;28;20456;-62
2021/04/30 11:52:02;;;;;;;11.57;10.77;;;;;;;;;;4955629;28;20500;-62
2021/04/30 11:54:30;;;;;;;11.03;10.23;;;;;;;;;;4955572;28;20455;-62
2021/04/30 11:56:57;;;;;;;11.37;10.57;;;;;;;;;;4955224;28;20484;-62
2021/04/30 11:59:24;;;;;;;11.83;11.03;;;;;;;;;;4955956;28;20899;-62
2021/04/30 12:02:01;;;;;;;12.13;11.23;;;;;;;;;;4955288;28;20582;-62
2021/04/30 12:04:39;;;;;;;11.60;10.70;;;;;;;;;;4955984;28;20467;-62
2021/04/30 12:07:05;;;;;;;11.67;10.87;;;;;;;;;;4955461;28;20448;-62
2021/04/30 12:09:32;;;;;;;11.07;10.37;;;;;;;;;;4955673;28;20471;-62
2021/04/30 12:12:10;;;;;;;12.60;11.60;;;;;;;;;;4955153;28;20980;-62
2021/04/30 12:14:43;;;;;;;11.67;10.87;;;;;;;;;;4955726;28;20951;-62
2021/04/30 12:17:20;;;;;;;10.77;10.07;;;;;;;;;;4955248;28;20437;-62
2021/04/30 12:19:54;;;;;;;10.80;10.00;;;;;;;;;;4955432;28;20451;-62
2021/04/30 12:22:20;;;;;;;12.03;11.23;;;;;;;;;;4954962;28;20465;-63
2021/04/30 12:24:47;;;;;;;11.43;10.63;;;;;;;;;;4955305;28;20484;-63
2021/04/30 12:27:24;;;;;;;11.60;10.70;;;;;;;;;;4955072;28;20452;-62
2021/04/30 12:29:51;;;;;;;11.20;10.40;;;;;;;;;;4955450;28;20460;-62
2021/04/30 12:32:26;;;;;;;10.87;10.17;;;;;;;;;;4954716;28;20487;-62
2021/04/30 12:34:53;;;;;;;12.10;11.30;;;;;;;;;;4954951;28;20459;-62
2021/04/30 12:37:20;;;;;;;11.63;10.83;;;;;;;;;;4954962;28;20452;-62
2021/04/30 12:39:47;;;;;;;12.30;11.50;;;;;;;;;;4955247;28;20856;-62
2021/04/30 12:42:13;;;;;;;11.60;10.73;;;;;;;;;;4954668;28;20468;-63
2021/04/30 12:44:50;;;;;;;11.97;11.17;;;;;;;;;;4954726;28;21148;-63
2021/04/30 12:47:16;;;;;;;11.90;11.10;;;;;;;;;;4954637;28;20444;-63
2021/04/30 12:49:44;;;;;;;11.70;10.90;;;;;;;;;;4955033;28;20479;-62
2021/04/30 12:52:11;;;;;;;12.20;11.30;;;;;;;;;;4954681;28;20472;-63
2021/04/30 12:54:37;;;;;;;11.53;10.73;;;;;;;;;;4954824;28;20463;-62
2021/04/30 12:57:08;;;;;;;10.90;10.20;;;;;;;;;;4954025;28;20459;-62
2021/04/30 12:59:34;;;;;;;11.83;10.93;;;;;;;;;;4954738;28;20436;-62
2021/04/30 13:02:07;;;;;;;12.20;11.33;;;;;;;;;;4954257;28;20492;-62
2021/04/30 13:04:41;;;;;;;11.87;11.03;;;;;;;;;;4954908;28;20492;-62
2021/04/30 13:07:09;;;;;;;10.17;9.47;;;;;;;;;;4954355;28;20456;-62
2021/04/30 13:09:35;;;;;;;12.60;11.73;;;;;;;;;;4954464;28;20453;-62
2021/04/30 13:12:03;;;;;;;11.60;10.80;;;;;;;;;;4954369;28;20472;-62
2021/04/30 13:14:41;;;;;;;11.40;10.50;;;;;;;;;;4954967;28;20511;-63
2021/04/30 13:17:15;;;;;;;12.80;11.90;;;;;;;;;;4954113;28;20448;-62
2021/04/30 13:19:41;;;;;;;13.47;12.47;;;;;;;;;;4954435;28;20475;-62
2021/04/30 13:22:14;;;;;;;13.63;12.57;;;;;;;;;;4954123;28;20480;-62
2021/04/30 13:24:41;;;;;;;13.50;12.57;;;;;;;;;;4954424;28;20484;-63
2021/04/30 13:27:08;;;;;;;13.53;12.63;;;;;;;;;;4953820;28;20453;-63
2021/04/30 13:29:35;;;;;;;13.07;11.97;;;;;;;;;;4954362;28;20463;-63
2021/04/30 13:32:04;;;;;;;13.73;12.73;;;;;;;;;;4953859;28;20857;-63
2021/04/30 13:34:34;;;;;;;12.80;11.90;;;;;;;;;;4953757;28;20972;-63
2021/04/30 13:37:03;;;;;;;12.93;11.93;;;;;;;;;;4953603;28;20466;-63
2021/04/30 13:39:32;;;;;;;12.93;12.13;;;;;;;;;;4954052;28;20448;-63
2021/04/30 13:41:58;;;;;;;11.73;10.80;;;;;;;;;;4953470;28;20844;-63
2021/04/30 13:44:25;;;;;;;11.70;10.90;;;;;;;;;;4954010;28;20999;-63
2021/04/30 13:46:53;;;;;;;12.63;11.67;;;;;;;;;;4953631;28;20944;-63
2021/04/30 13:49:20;;;;;;;12.00;11.07;;;;;;;;;;4953289;28;20455;-63
2021/04/30 13:51:46;;;;;;;12.93;12.03;;;;;;;;;;4953901;28;20466;-63
2021/04/30 13:54:13;;;;;;;12.20;11.40;;;;;;;;;;4953984;28;20454;-63
2021/04/30 13:56:41;;;;;;;13.10;12.20;;;;;;;;;;4953576;28;20452;-63
2021/04/30 13:59:07;;;;;;;12.50;11.60;;;;;;;;;;4953520;28;20463;-63
2021/04/30 14:01:34;;;;;;;12.53;11.57;;;;;;;;;;4953425;28;20448;-63
2021/04/30 14:04:01;;;;;;;13.63;12.63;;;;;;;;;;4953288;28;20488;-65
2021/04/30 14:06:28;;;;;;;12.73;11.83;;;;;;;;;;4953663;28;20456;-63
2021/04/30 14:08:54;;;;;;;11.37;10.57;;;;;;;;;;4953733;28;20453;-63
2021/04/30 14:11:21;;;;;;;10.97;10.10;;;;;;;;;;4957737;28;20607;-63
2021/04/30 14:13:49;;;;;;;11.80;10.90;;;;;;;;;;4957305;28;20464;-63
2021/04/30 14:16:15;;;;;;;11.30;10.60;;;;;;;;;;4957142;28;20970;-63
2021/04/30 14:18:42;;;;;;;11.57;10.77;;;;;;;;;;4957481;28;20451;-63
2021/04/30 14:21:09;;;;;;;11.30;10.50;;;;;;;;;;4957658;28;20451;-63